Time;durP1;ratioP1;P1;durP2;ratioP2;P2;SDS_P1;SDS_P2;PMS_P1;PMS_P2;Temp;Humidity;BMP_temperature;BMP_pressure;BME280_temperature;BME280_humidity;BME280_pressure;Samples;Min_cycle;Max_cycle;Signal;HPM_P1;HPM_P2
2023/02/07 00:00:37;;;;;;;3.35;2.97;;;;;;;2.16;100.00;102559.44;5043121;28;20284;-74
2023/02/07 00:03:04;;;;;;;4.60;3.72;;;;;;;2.07;100.00;102549.50;5041669;28;20231;-75
2023/02/07 00:05:32;;;;;;;4.55;3.72;;;;;;;2.00;100.00;102547.56;5044021;28;20303;-74
2023/02/07 00:07:59;;;;;;;5.05;3.40;;;;;;;2.05;100.00;102551.22;5055123;28;20213;-74
2023/02/07 00:10:25;;;;;;;4.65;3.40;;;;;;;2.04;100.00;102554.75;5057529;28;20267;-75
2023/02/07 00:12:52;;;;;;;4.45;3.35;;;;;;;2.00;100.00;102547.56;5051990;28;20231;-74
2023/02/07 00:15:18;;;;;;;5.20;3.55;;;;;;;1.97;100.00;102552.81;5044134;28;20563;-74
2023/02/07 00:17:45;;;;;;;4.32;3.17;;;;;;;1.93;100.00;102554.47;5042684;28;20256;-74
2023/02/07 00:20:12;;;;;;;5.18;3.78;;;;;;;1.98;100.00;102557.25;5041816;28;20290;-75
2023/02/07 00:22:40;;;;;;;4.18;3.15;;;;;;;1.98;100.00;102566.13;5038990;28;20204;-73
2023/02/07 00:25:07;;;;;;;4.22;3.28;;;;;;;1.94;100.00;102569.53;5042428;28;20218;-74
2023/02/07 00:27:33;;;;;;;5.18;3.75;;;;;;;1.97;100.00;102582.03;5043535;28;20648;-75
2023/02/07 00:30:00;;;;;;;5.22;3.67;;;;;;;1.88;100.00;102585.38;5042185;28;20697;-73
2023/02/07 00:32:31;;;;;;;4.28;3.67;;;;;;;1.85;100.00;102591.50;5044181;28;20634;-73
2023/02/07 00:34:57;;;;;;;4.40;3.33;;;;;;;1.86;100.00;102576.44;5042201;28;20225;-74
2023/02/07 00:37:24;;;;;;;4.32;3.60;;;;;;;1.80;100.00;102586.91;5043335;28;20204;-73
2023/02/07 00:39:52;;;;;;;3.85;3.38;;;;;;;1.82;100.00;102579.88;5040871;28;20243;-74
2023/02/07 00:42:19;;;;;;;4.68;3.65;;;;;;;1.79;100.00;102575.41;5042773;28;20288;-75
2023/02/07 00:44:45;;;;;;;5.60;3.65;;;;;;;1.78;100.00;102570.03;5068508;22;20239;-74
2023/02/07 00:47:12;;;;;;;4.97;3.83;;;;;;;1.79;100.00;102569.19;5057876;28;20234;-75
2023/02/07 00:49:38;;;;;;;4.15;3.45;;;;;;;1.75;100.00;102576.16;5038099;28;20211;-74
2023/02/07 00:52:05;;;;;;;3.75;3.08;;;;;;;1.75;100.00;102583.25;5037527;28;20290;-74
2023/02/07 00:54:32;;;;;;;4.88;3.70;;;;;;;1.87;100.00;102565.84;5038536;28;20230;-74
2023/02/07 00:57:00;;;;;;;6.30;3.80;;;;;;;1.84;100.00;102563.13;5038395;28;20208;-76
2023/02/07 00:59:26;;;;;;;4.88;3.50;;;;;;;1.95;100.00;102562.50;5038375;28;20223;-74
2023/02/07 01:01:53;;;;;;;4.15;2.97;;;;;;;1.97;100.00;102569.66;5039046;28;20200;-74
2023/02/07 01:04:19;;;;;;;6.88;3.10;;;;;;;1.90;100.00;102553.50;5038029;28;20583;-74
2023/02/07 01:06:46;;;;;;;6.20;3.50;;;;;;;1.94;100.00;102558.03;5038642;28;20273;-73
2023/02/07 01:09:13;;;;;;;4.40;3.35;;;;;;;1.84;100.00;102540.97;5038310;28;20209;-74
2023/02/07 01:11:39;;;;;;;4.32;2.85;;;;;;;1.94;100.00;102542.97;5039349;28;20235;-74
2023/02/07 01:14:07;;;;;;;3.97;3.22;;;;;;;1.80;100.00;102542.63;5037499;28;20642;-74
2023/02/07 01:16:35;;;;;;;3.55;2.88;;;;;;;1.74;100.00;102547.81;5038680;28;20254;-73
2023/02/07 01:19:04;;;;;;;4.70;3.35;;;;;;;1.75;100.00;102557.56;5037800;28;20243;-74
2023/02/07 01:21:31;;;;;;;5.50;3.67;;;;;;;1.80;100.00;102558.56;5036935;28;20253;-73
2023/02/07 01:23:58;;;;;;;4.70;3.58;;;;;;;1.97;100.00;102553.69;5038064;28;20283;-74
2023/02/07 01:26:25;;;;;;;4.93;3.05;;;;;;;2.10;100.00;102557.53;5038060;28;20214;-74
2023/02/07 01:28:51;;;;;;;3.85;3.22;;;;;;;2.13;100.00;102552.31;5037895;28;20231;-73
2023/02/07 01:31:20;;;;;;;4.57;2.90;;;;;;;2.25;100.00;102557.00;5038070;28;20200;-74
2023/02/07 01:33:47;;;;;;;4.60;3.40;;;;;;;2.38;100.00;102567.06;5038827;28;20211;-74
2023/02/07 01:36:16;;;;;;;4.43;2.97;;;;;;;2.45;100.00;102568.09;5036715;28;20590;-73
2023/02/07 01:38:42;;;;;;;3.75;2.80;;;;;;;2.38;100.00;102567.06;5036589;28;20295;-74
2023/02/07 01:41:11;;;;;;;3.88;2.35;;;;;;;2.41;100.00;102567.13;5036617;28;20220;-74
2023/02/07 01:43:53;;;;;;;3.55;3.13;;;;;;;2.55;100.00;102564.78;5036851;28;20193;-74
2023/02/07 01:46:21;;;;;;;4.20;2.90;;;;;;;2.63;100.00;102563.19;5037350;28;20199;-74
2023/02/07 01:48:48;;;;;;;3.35;3.00;;;;;;;2.65;100.00;102563.25;5035940;28;20216;-74
2023/02/07 01:51:16;;;;;;;4.50;2.85;;;;;;;2.72;100.00;102570.47;5038652;28;20602;-73
2023/02/07 01:53:43;;;;;;;4.15;2.90;;;;;;;2.70;100.00;102565.13;5036922;28;20662;-73
2023/02/07 01:56:13;;;;;;;3.50;2.75;;;;;;;2.71;100.00;102560.69;5036993;28;20776;-73
2023/02/07 01:58:40;;;;;;;5.28;3.30;;;;;;;2.67;100.00;102567.72;5035221;28;20266;-73
2023/02/07 02:01:10;;;;;;;3.70;3.08;;;;;;;2.61;100.00;102580.00;5035929;28;20201;-75
2023/02/07 02:03:43;;;;;;;7.43;3.70;;;;;;;2.59;100.00;102584.38;5037605;28;20296;-74
2023/02/07 02:06:12;;;;;;;4.28;3.50;;;;;;;2.53;100.00;102574.47;5036817;28;20224;-75
2023/02/07 02:08:38;;;;;;;4.53;3.38;;;;;;;2.37;100.00;102582.97;5037253;28;20199;-73
2023/02/07 02:11:21;;;;;;;4.20;3.75;;;;;;;2.26;100.00;102583.66;5040931;28;20555;-72
2023/02/07 02:13:57;;;;;;;4.50;3.28;;;;;;;2.15;100.00;102576.25;5041461;28;20199;-75
2023/02/07 02:16:34;;;;;;;4.18;3.33;;;;;;;2.09;100.00;102577.91;5040508;28;20215;-73
2023/02/07 02:19:31;;;;;;;5.07;4.07;;;;;;;1.97;100.00;102574.97;5038574;28;20199;-73
2023/02/07 02:22:28;;;;;;;5.25;4.20;;;;;;;1.87;100.00;102563.19;5039223;28;20199;-74
2023/02/07 02:25:18;;;;;;;5.07;3.83;;;;;;;1.74;100.00;102563.75;5015304;28;20263;-75
2023/02/07 02:28:13;;;;;;;4.65;3.58;;;;;;;1.67;100.00;102570.66;5023015;28;20724;-73
2023/02/07 02:31:08;;;;;;;6.57;4.57;;;;;;;1.57;100.00;102575.69;5014892;28;20241;-74
2023/02/07 02:33:44;;;;;;;4.60;4.20;;;;;;;1.52;100.00;102574.69;5028606;28;20287;-75
2023/02/07 02:36:21;;;;;;;7.32;4.10;;;;;;;1.45;100.00;102570.97;5036041;28;20285;-74
2023/02/07 02:38:53;;;;;;;4.50;3.90;;;;;;;1.47;100.00;102574.56;5034608;28;20224;-75
2023/02/07 02:41:24;;;;;;;4.82;4.05;;;;;;;1.42;100.00;102570.84;5035116;28;20270;-74
2023/02/07 02:43:57;;;;;;;6.28;4.13;;;;;;;1.39;100.00;102573.44;5034088;28;20199;-74
2023/02/07 02:46:29;;;;;;;6.13;4.40;;;;;;;1.37;100.00;102567.19;5035384;28;20280;-74
2023/02/07 02:48:58;;;;;;;5.13;3.80;;;;;;;1.37;100.00;102567.19;5036362;28;20289;-73
2023/02/07 02:51:28;;;;;;;5.60;4.05;;;;;;;1.36;100.00;102573.38;5034196;28;20227;-74
2023/02/07 02:53:56;;;;;;;6.35;5.75;;;;;;;1.39;100.00;102574.34;5035441;28;20231;-75
2023/02/07 02:56:52;;;;;;;5.65;4.47;;;;;;;1.34;100.00;102567.13;5035689;28;20239;-72
2023/02/07 02:59:46;;;;;;;6.22;4.68;;;;;;;1.24;100.00;102568.59;5034333;28;20311;-75
2023/02/07 03:02:24;;;;;;;6.20;4.85;;;;;;;1.17;100.00;102572.84;5036852;28;20638;-73
2023/02/07 03:05:05;;;;;;;6.60;4.75;;;;;;;1.14;100.00;102566.56;5039831;28;20223;-75
2023/02/07 03:07:44;;;;;;;6.22;5.05;;;;;;;1.14;100.00;102566.56;5035827;28;20600;-73
2023/02/07 03:10:23;;;;;;;8.90;5.15;;;;;;;1.20;100.00;102566.75;5036079;28;20287;-73
2023/02/07 03:12:57;;;;;;;6.13;4.90;;;;;;;1.15;100.00;102563.94;5035459;28;20220;-73
2023/02/07 03:15:32;;;;;;;6.75;4.97;;;;;;;1.09;100.00;102562.88;5035451;28;20234;-73
2023/02/07 03:18:05;;;;;;;7.45;5.38;;;;;;;1.00;100.00;102555.56;5035533;28;20217;-73
2023/02/07 03:20:37;;;;;;;6.40;5.30;;;;;;;0.88;100.00;102541.94;5036480;28;20223;-74
2023/02/07 03:23:06;;;;;;;7.15;5.50;;;;;;;0.82;100.00;102543.56;5036041;28;20221;-75
2023/02/07 03:25:33;;;;;;;8.70;5.68;;;;;;;0.90;100.00;102545.53;5035376;28;20303;-73
2023/02/07 03:28:01;;;;;;;6.32;4.78;;;;;;;0.92;100.00;102530.56;5033650;28;20199;-74
2023/02/07 03:30:33;;;;;;;8.65;6.03;;;;;;;0.86;100.00;102541.91;5034494;28;20231;-74
2023/02/07 03:33:10;;;;;;;8.90;6.05;;;;;;;0.83;100.00;102549.75;5035801;28;20226;-74
2023/02/07 03:35:42;;;;;;;8.80;6.10;;;;;;;0.73;100.00;102556.56;5036247;28;20261;-74
2023/02/07 03:38:11;;;;;;;7.00;5.70;;;;;;;0.72;100.00;102560.03;5037969;28;20197;-74
2023/02/07 03:40:40;;;;;;;9.50;6.47;;;;;;;0.64;100.00;102564.25;5038674;28;20223;-74
2023/02/07 03:43:11;;;;;;;7.20;5.18;;;;;;;0.62;100.00;102564.19;5038727;28;20232;-74
2023/02/07 03:45:38;;;;;;;8.68;6.20;;;;;;;0.62;100.00;102561.53;5038990;28;20225;-74
2023/02/07 03:48:04;;;;;;;10.73;6.18;;;;;;;0.60;100.00;102559.69;5036892;28;20201;-74
2023/02/07 03:50:31;;;;;;;7.80;5.65;;;;;;;0.50;100.00;102550.56;5038263;28;20199;-73
2023/02/07 03:52:59;;;;;;;7.97;6.40;;;;;;;0.47;100.00;102550.44;5037947;28;20225;-74
2023/02/07 03:55:26;;;;;;;8.27;6.18;;;;;;;0.42;100.00;102552.06;5037775;28;20296;-74
2023/02/07 03:57:53;;;;;;;8.35;5.97;;;;;;;0.38;100.00;102560.78;5037380;28;20208;-73
2023/02/07 04:00:20;;;;;;;7.47;5.60;;;;;;;0.31;100.00;102553.50;5039170;28;20224;-73
2023/02/07 04:02:46;;;;;;;8.95;5.90;;;;;;;0.33;100.00;102551.78;5037834;28;20237;-74
2023/02/07 04:05:13;;;;;;;7.93;6.38;;;;;;;0.24;100.00;102546.22;5038368;28;20252;-75
2023/02/07 04:07:40;;;;;;;8.18;5.65;;;;;;;0.17;100.00;102558.38;5037197;28;20655;-73
2023/02/07 04:10:10;;;;;;;13.05;8.63;;;;;;;0.08;100.00;102556.31;5037688;28;20204;-74
2023/02/07 04:12:36;;;;;;;7.57;5.38;;;;;;;0.01;100.00;102561.38;5037914;28;20678;-73
2023/02/07 04:15:05;;;;;;;8.02;6.00;;;;;;;0.02;100.00;102563.16;5037699;28;20751;-74
2023/02/07 04:17:32;;;;;;;8.45;5.80;;;;;;;-0.01;100.00;102558.66;5036937;28;20242;-74
2023/02/07 04:20:00;;;;;;;11.45;6.88;;;;;;;-0.05;100.00;102552.34;5037867;28;20221;-74
2023/02/07 04:22:27;;;;;;;7.93;5.30;;;;;;;-0.12;100.00;102547.72;5036491;28;20209;-74
2023/02/07 04:24:53;;;;;;;7.25;5.93;;;;;;;-0.24;100.00;102555.28;5037184;28;20276;-74
2023/02/07 04:27:21;;;;;;;8.27;5.68;;;;;;;-0.27;100.00;102563.09;5036145;28;20293;-74
2023/02/07 04:29:48;;;;;;;8.50;6.28;;;;;;;-0.53;100.00;102565.75;5037336;28;20201;-74
2023/02/07 04:32:15;;;;;;;8.73;6.22;;;;;;;-0.58;100.00;102564.69;5036591;28;20686;-73
2023/02/07 04:34:42;;;;;;;7.35;5.32;;;;;;;-0.47;100.00;102563.34;5038121;28;20710;-73
2023/02/07 04:37:08;;;;;;;8.30;6.80;;;;;;;-0.45;100.00;102572.22;5037369;28;20201;-74
2023/02/07 04:39:35;;;;;;;9.15;6.25;;;;;;;-0.40;100.00;102572.38;5037213;28;20593;-74
2023/02/07 04:42:01;;;;;;;11.35;7.00;;;;;;;-0.42;100.00;102580.28;5039030;28;20223;-74
2023/02/07 04:44:30;;;;;;;14.43;7.75;;;;;;;-0.47;100.00;102584.50;5037401;28;20398;-74
2023/02/07 04:46:56;;;;;;;15.82;10.25;;;;;;;-0.57;100.00;102578.84;5037530;28;20747;-75
2023/02/07 04:49:23;;;;;;;9.48;7.32;;;;;;;-0.67;100.00;102572.31;5042773;28;20196;-74
2023/02/07 04:51:49;;;;;;;9.88;6.63;;;;;;;-0.63;100.00;102576.88;5043676;28;20256;-73
2023/02/07 04:54:16;;;;;;;19.25;11.30;;;;;;;-0.59;100.00;102570.81;5045992;28;20637;-74
2023/02/07 04:56:43;;;;;;;91.50;51.20;;;;;;;-0.65;100.00;102562.69;5046924;28;20212;-74
2023/02/07 04:59:09;;;;;;;33.53;18.67;;;;;;;-0.68;100.00;102568.78;5039684;28;20683;-75
2023/02/07 05:01:37;;;;;;;10.30;7.32;;;;;;;-0.73;100.00;102577.38;5040291;28;20239;-73
2023/02/07 05:04:04;;;;;;;9.68;6.72;;;;;;;-0.74;100.00;102568.56;5038473;28;20206;-73
2023/02/07 05:06:31;;;;;;;9.73;6.50;;;;;;;-0.78;100.00;102565.75;5046019;28;20233;-74
2023/02/07 05:08:57;;;;;;;11.68;7.28;;;;;;;-0.88;100.00;102569.81;5036106;28;20283;-74
2023/02/07 05:11:24;;;;;;;9.95;6.78;;;;;;;-0.86;100.00;102569.03;5038316;28;20215;-74
2023/02/07 05:13:51;;;;;;;11.60;7.40;;;;;;;-0.87;100.00;102568.97;5038669;28;20213;-74
2023/02/07 05:16:17;;;;;;;13.52;7.38;;;;;;;-0.87;100.00;102585.72;5039111;28;20231;-75
2023/02/07 05:18:45;;;;;;;10.20;7.55;;;;;;;-0.81;100.00;102579.78;5038804;28;20204;-74
2023/02/07 05:21:12;;;;;;;10.73;7.80;;;;;;;-0.76;100.00;102582.59;5036984;28;20733;-74
2023/02/07 05:23:38;;;;;;;12.07;8.50;;;;;;;-0.70;100.00;102594.28;5038764;28;20276;-74
2023/02/07 05:26:05;;;;;;;19.85;12.30;;;;;;;-0.69;100.00;102595.19;5039025;28;20218;-74
2023/02/07 05:28:32;;;;;;;16.83;9.40;;;;;;;-0.67;100.00;102589.09;5037788;28;20647;-74
2023/02/07 05:30:59;;;;;;;12.18;8.15;;;;;;;-0.71;100.00;102589.81;5037249;28;20205;-74
2023/02/07 05:33:25;;;;;;;14.48;9.75;;;;;;;-0.72;100.00;102592.44;5026900;28;20201;-76
2023/02/07 05:35:53;;;;;;;18.67;11.87;;;;;;;-0.79;100.00;102598.34;5037831;28;20235;-74
2023/02/07 05:38:21;;;;;;;15.73;9.85;;;;;;;-0.85;100.00;102597.28;5037469;28;20198;-74
2023/02/07 05:40:48;;;;;;;11.80;8.27;;;;;;;-0.90;100.00;102597.97;5037046;28;20321;-73
2023/02/07 05:43:15;;;;;;;19.40;8.60;;;;;;;-0.91;100.00;102599.69;5037211;28;20265;-74
2023/02/07 05:45:42;;;;;;;14.88;9.02;;;;;;;-0.97;100.00;102599.47;5037047;28;20228;-76
2023/02/07 05:48:08;;;;;;;16.38;9.80;;;;;;;-1.05;100.00;102601.81;5036477;28;20277;-74
2023/02/07 05:50:35;;;;;;;10.73;8.63;;;;;;;-1.08;100.00;102596.44;5040676;28;20360;-74
2023/02/07 05:53:03;;;;;;;13.93;9.15;;;;;;;-1.09;100.00;102594.59;5040248;28;20216;-73
2023/02/07 05:55:30;;;;;;;13.38;8.93;;;;;;;-1.12;100.00;102593.63;5040938;28;20234;-74
2023/02/07 05:57:57;;;;;;;16.83;11.75;;;;;;;-1.13;100.00;102602.38;5038679;28;20216;-75
2023/02/07 06:00:24;;;;;;;11.98;8.80;;;;;;;-1.12;100.00;102601.53;5040203;28;20320;-74
2023/02/07 06:02:51;;;;;;;15.13;9.88;;;;;;;-1.11;100.00;102596.31;5039400;28;20205;-75
2023/02/07 06:05:20;;;;;;;16.52;11.35;;;;;;;-1.13;100.00;102605.94;5037449;28;20295;-74
2023/02/07 06:07:47;;;;;;;25.90;14.13;;;;;;;-1.07;100.00;102611.44;5036231;28;20201;-74
2023/02/07 06:10:15;;;;;;;18.73;12.00;;;;;;;-1.05;100.00;102615.03;5036300;28;20227;-74
2023/02/07 06:12:42;;;;;;;15.95;10.50;;;;;;;-1.08;100.00;102614.03;5036680;28;20218;-73
2023/02/07 06:15:09;;;;;;;23.42;13.93;;;;;;;-1.08;100.00;102612.31;5035089;28;20225;-75
2023/02/07 06:17:37;;;;;;;29.13;16.58;;;;;;;-1.08;100.00;102617.59;5039425;28;20208;-74
2023/02/07 06:20:05;;;;;;;20.33;12.23;;;;;;;-1.14;100.00;102612.06;5055776;28;20200;-75
2023/02/07 06:22:31;;;;;;;15.48;9.93;;;;;;;-1.21;100.00;102617.97;5057368;28;20195;-77
2023/02/07 06:24:58;;;;;;;15.93;11.23;;;;;;;-1.31;100.00;102624.66;5057268;28;20205;-75
2023/02/07 06:27:26;;;;;;;17.52;11.60;;;;;;;-1.33;100.00;102626.31;5056923;28;20187;-75
2023/02/07 06:29:53;;;;;;;14.93;10.43;;;;;;;-1.26;100.00;102625.72;5056745;28;20177;-74
2023/02/07 06:32:19;;;;;;;15.07;9.75;;;;;;;-1.32;100.00;102621.94;5053894;28;20201;-76
2023/02/07 06:34:46;;;;;;;18.40;10.75;;;;;;;-1.31;100.00;102618.47;5040012;28;20360;-75
2023/02/07 06:37:12;;;;;;;15.82;10.60;;;;;;;-1.32;100.00;102622.81;5039812;28;20205;-75
2023/02/07 06:39:39;;;;;;;17.27;10.30;;;;;;;-1.36;100.00;102618.25;5037864;28;20224;-73
2023/02/07 06:42:06;;;;;;;16.80;10.32;;;;;;;-1.38;100.00;102621.69;5040748;28;20231;-74
2023/02/07 06:44:34;;;;;;;15.25;9.88;;;;;;;-1.40;100.00;102626.94;5072261;22;20235;-74
2023/02/07 06:47:00;;;;;;;16.38;10.63;;;;;;;-1.33;100.00;102628.06;5059784;28;20654;-73
2023/02/07 06:49:27;;;;;;;16.10;10.73;;;;;;;-1.43;100.00;102637.38;5057730;28;20232;-74
2023/02/07 06:51:53;;;;;;;17.65;11.27;;;;;;;-1.47;100.00;102646.94;5060093;28;20218;-74
2023/02/07 06:54:20;;;;;;;18.67;11.00;;;;;;;-1.38;100.00;102656.06;5059880;28;20196;-73
2023/02/07 06:56:47;;;;;;;17.98;11.15;;;;;;;-1.43;100.00;102649.69;5057038;28;20249;-76
2023/02/07 06:59:13;;;;;;;15.85;9.88;;;;;;;-1.37;100.00;102649.94;5052323;28;20212;-74
2023/02/07 07:01:41;;;;;;;16.20;10.45;;;;;;;-1.29;100.00;102654.69;5053115;28;20220;-74
2023/02/07 07:04:08;;;;;;;16.15;10.60;;;;;;;-1.28;100.00;102668.81;5051416;28;20232;-75
2023/02/07 07:06:34;;;;;;;16.25;10.75;;;;;;;-1.21;100.00;102667.31;5041138;28;20292;-74
2023/02/07 07:09:01;;;;;;;16.23;10.75;;;;;;;-1.14;100.00;102678.19;5039933;28;20635;-73
2023/02/07 07:11:28;;;;;;;18.55;10.98;;;;;;;-1.06;100.00;102692.63;5046903;28;20201;-72
2023/02/07 07:13:54;;;;;;;15.85;11.60;;;;;;;-0.93;100.00;102695.72;5049129;28;20700;-74
2023/02/07 07:16:21;;;;;;;17.15;10.82;;;;;;;-0.85;100.00;102694.28;5044140;28;20233;-74
2023/02/07 07:18:49;;;;;;;20.10;12.10;;;;;;;-0.68;100.00;102703.78;5046603;28;20259;-74
2023/02/07 07:21:16;;;;;;;16.50;11.15;;;;;;;-0.50;100.00;102698.25;5053247;28;20278;-75
2023/02/07 07:23:42;;;;;;;15.88;11.75;;;;;;;-0.29;100.00;102702.53;5047372;28;20211;-73
2023/02/07 07:26:09;;;;;;;18.90;12.02;;;;;;;-0.05;100.00;102713.97;5047463;28;20274;-73
2023/02/07 07:28:35;;;;;;;18.75;11.27;;;;;;;0.21;100.00;102711.34;5047207;28;20340;-74
2023/02/07 07:31:04;;;;;;;17.40;12.07;;;;;;;0.60;100.00;102706.44;5043569;28;20671;-74
2023/02/07 07:33:31;;;;;;;18.63;11.57;;;;;;;1.09;100.00;102709.75;5042398;28;20237;-75
2023/02/07 07:35:59;;;;;;;21.27;12.55;;;;;;;1.64;100.00;102713.13;5051725;28;20269;-75
2023/02/07 07:38:27;;;;;;;16.08;11.35;;;;;;;2.50;100.00;102712.75;5060394;28;20621;-74
2023/02/07 07:40:53;;;;;;;17.27;11.60;;;;;;;3.22;100.00;102702.91;5061523;28;20331;-77
2023/02/07 07:43:21;;;;;;;19.15;11.43;;;;;;;3.88;100.00;102701.56;5061024;28;20270;-75
2023/02/07 07:45:52;;;;;;;16.25;10.98;;;;;;;4.50;100.00;102700.88;5059201;28;20323;-73
2023/02/07 07:48:19;;;;;;;18.63;11.93;;;;;;;5.22;100.00;102717.97;5062290;28;20232;-74
2023/02/07 07:50:46;;;;;;;13.90;10.88;;;;;;;5.66;100.00;102720.34;5064981;28;20268;-75
2023/02/07 07:53:14;;;;;;;13.38;10.77;;;;;;;6.05;95.33;102730.63;5071287;28;20208;-74
2023/02/07 07:55:41;;;;;;;17.23;12.45;;;;;;;6.14;86.50;102723.59;5070919;28;20251;-73
2023/02/07 07:58:07;;;;;;;16.65;11.82;;;;;;;6.06;86.88;102718.16;5066916;28;20199;-74
2023/02/07 08:00:34;;;;;;;17.13;12.63;;;;;;;5.80;83.84;102720.50;5059793;28;20255;-76
2023/02/07 08:03:01;;;;;;;15.73;11.45;;;;;;;6.53;80.68;102732.84;5049385;28;20546;-74
2023/02/07 08:05:27;;;;;;;17.67;12.63;;;;;;;7.04;77.41;102728.78;5041123;28;20745;-74
2023/02/07 08:07:54;;;;;;;17.35;12.60;;;;;;;7.51;71.68;102729.03;5040656;28;20211;-75
2023/02/07 08:10:22;;;;;;;17.35;12.25;;;;;;;8.27;63.75;102732.81;5040127;28;20281;-74
2023/02/07 08:12:48;;;;;;;16.38;12.85;;;;;;;7.83;61.33;102727.38;5039908;28;20293;-75
2023/02/07 08:15:15;;;;;;;18.27;13.05;;;;;;;8.74;57.24;102725.72;5039949;28;20577;-74
2023/02/07 08:17:42;;;;;;;15.77;12.00;;;;;;;8.80;55.54;102723.03;5039908;28;20263;-75
2023/02/07 08:20:11;;;;;;;14.75;11.70;;;;;;;9.11;55.82;102718.50;5040193;28;20309;-75
2023/02/07 08:22:37;;;;;;;15.27;12.07;;;;;;;9.73;51.68;102729.06;5040506;28;20212;-74
2023/02/07 08:25:05;;;;;;;17.80;12.95;;;;;;;9.75;50.50;102719.19;5045703;28;20221;-76
2023/02/07 08:27:33;;;;;;;14.27;12.35;;;;;;;10.61;48.80;102730.28;5048950;28;20202;-74
2023/02/07 08:30:00;;;;;;;18.88;12.85;;;;;;;11.59;45.90;102717.56;5048083;28;20206;-74
2023/02/07 08:32:27;;;;;;;15.38;12.85;;;;;;;11.76;45.76;102725.44;5048019;28;20244;-75
2023/02/07 08:34:54;;;;;;;16.00;13.13;;;;;;;11.54;44.94;102724.84;5044250;28;20591;-74
2023/02/07 08:37:21;;;;;;;14.40;12.38;;;;;;;11.27;45.00;102723.34;5061607;28;20272;-74
2023/02/07 08:39:51;;;;;;;14.80;12.45;;;;;;;11.73;44.43;102728.16;5057751;28;20205;-75
2023/02/07 08:42:18;;;;;;;20.30;12.93;;;;;;;11.62;44.10;102727.41;5057296;28;20221;-74
2023/02/07 08:44:46;;;;;;;14.70;12.52;;;;;;;11.96;43.60;102736.03;5058904;28;20212;-74
2023/02/07 08:47:13;;;;;;;14.52;12.75;;;;;;;11.98;43.22;102734.16;5063577;28;20277;-75
2023/02/07 08:49:39;;;;;;;16.20;13.25;;;;;;;12.56;41.80;102732.38;5069726;28;20212;-74
2023/02/07 08:52:06;;;;;;;18.00;13.40;;;;;;;12.06;41.63;102732.25;5070014;28;20209;-73
2023/02/07 08:54:33;;;;;;;14.90;13.30;;;;;;;11.78;42.08;102739.84;5071310;28;20233;-75
2023/02/07 08:56:59;;;;;;;17.38;12.85;;;;;;;11.60;42.41;102731.94;5070968;28;20212;-74
2023/02/07 08:59:26;;;;;;;13.80;12.32;;;;;;;11.99;40.84;102745.88;5069202;28;20209;-74
2023/02/07 09:01:54;;;;;;;15.65;12.80;;;;;;;12.57;40.27;102739.56;5068171;28;20293;-75
2023/02/07 09:04:21;;;;;;;13.85;12.38;;;;;;;13.32;40.31;102735.56;5067880;28;20233;-75
2023/02/07 09:06:48;;;;;;;13.90;12.40;;;;;;;13.57;38.98;102740.47;5048767;28;20219;-75
2023/02/07 09:09:14;;;;;;;13.80;12.35;;;;;;;13.31;39.03;102741.00;5045350;28;20222;-75
2023/02/07 09:11:41;;;;;;;16.02;12.48;;;;;;;12.94;39.71;102730.84;5046264;28;20603;-74
2023/02/07 09:14:07;;;;;;;13.50;11.85;;;;;;;13.65;38.33;102737.59;5045706;28;20238;-74
2023/02/07 09:16:34;;;;;;;15.00;12.40;;;;;;;13.64;38.12;102733.13;5050793;28;20223;-75
2023/02/07 09:19:02;;;;;;;14.20;12.38;;;;;;;13.17;37.66;102734.94;5050899;28;20241;-75
2023/02/07 09:21:30;;;;;;;15.27;13.10;;;;;;;14.38;36.87;102735.94;5052186;28;20221;-74
2023/02/07 09:23:56;;;;;;;13.10;11.07;;;;;;;14.12;36.81;102732.94;5051988;28;20213;-76
2023/02/07 09:26:25;;;;;;;13.57;12.02;;;;;;;14.04;37.15;102727.72;5050611;28;20258;-75
2023/02/07 09:28:52;;;;;;;13.68;12.25;;;;;;;14.75;35.76;102732.34;5047772;28;20747;-75
2023/02/07 09:31:20;;;;;;;14.93;12.40;;;;;;;15.23;34.50;102721.06;5046567;28;20227;-75
2023/02/07 09:33:47;;;;;;;13.17;11.70;;;;;;;16.21;34.19;102727.25;5040661;28;20580;-75
2023/02/07 09:36:21;;;;;;;13.87;12.47;;;;;;;15.86;33.29;102726.53;5053984;28;20457;-75
2023/02/07 09:38:48;;;;;;;13.83;12.43;;;;;;;15.99;33.83;102719.78;5065606;28;20898;-74
2023/02/07 09:41:21;;;;;;;13.33;11.93;;;;;;;14.25;35.40;102720.91;5064779;28;20509;-74
2023/02/07 09:43:58;;;;;;;12.90;11.60;;;;;;;14.31;34.87;102714.41;5063807;28;20427;-74
2023/02/07 09:46:33;;;;;;;14.37;11.40;;;;;;;15.54;34.06;102714.78;5060157;28;20497;-76
2023/02/07 09:49:05;;;;;;;13.67;11.57;;;;;;;15.45;33.96;102712.34;5056804;28;20519;-74
2023/02/07 09:51:34;;;;;;;14.07;12.03;;;;;;;16.16;32.67;102715.63;5057609;28;20422;-75
2023/02/07 09:54:03;;;;;;;15.00;11.60;;;;;;;15.55;33.02;102721.09;5056902;28;20447;-75
2023/02/07 09:56:32;;;;;;;13.90;12.50;;;;;;;16.10;32.98;102718.53;5056398;28;20467;-75
2023/02/07 09:59:05;;;;;;;14.43;11.80;;;;;;;16.80;31.91;102712.59;5056652;28;20525;-75
2023/02/07 10:01:36;;;;;;;18.00;12.40;;;;;;;16.80;32.03;102715.34;5058179;28;20485;-74
2023/02/07 10:04:15;;;;;;;14.23;12.73;;;;;;;16.71;31.14;102715.63;5057930;28;20501;-76
2023/02/07 10:06:46;;;;;;;14.33;12.07;;;;;;;16.38;32.14;102719.44;5057773;28;20489;-75
2023/02/07 10:09:16;;;;;;;12.07;10.80;;;;;;;17.59;31.16;102717.00;5038336;28;20474;-74
2023/02/07 10:11:50;;;;;;;12.80;11.50;;;;;;;16.10;31.80;102721.25;5037714;28;20879;-75
2023/02/07 10:14:26;;;;;;;12.73;10.37;;;;;;;17.13;31.01;102717.81;5035830;28;20517;-75
2023/02/07 10:17:08;;;;;;;13.03;11.10;;;;;;;17.57;30.84;102726.16;5036883;28;20442;-75
2023/02/07 10:19:48;;;;;;;11.53;10.43;;;;;;;17.66;30.28;102726.72;5035877;28;20466;-75
2023/02/07 10:22:25;;;;;;;13.20;11.03;;;;;;;17.77;29.77;102723.56;5036822;28;20575;-75
2023/02/07 10:25:06;;;;;;;13.57;12.20;;;;;;;16.88;30.72;102716.84;5039396;28;20472;-75
2023/02/07 10:27:37;;;;;;;13.57;12.20;;;;;;;16.58;31.37;102709.72;5045033;28;20541;-75
2023/02/07 10:30:11;;;;;;;13.53;12.10;;;;;;;17.63;30.09;102707.75;5045391;28;20523;-75
2023/02/07 10:32:39;;;;;;;13.37;12.03;;;;;;;18.00;29.99;102711.81;5045408;28;20488;-75
2023/02/07 10:35:16;;;;;;;14.03;12.70;;;;;;;18.05;29.91;102709.78;5045833;28;20473;-74
2023/02/07 10:37:47;;;;;;;13.10;11.70;;;;;;;17.11;30.96;102706.97;5042384;28;20475;-76
2023/02/07 10:40:19;;;;;;;12.80;11.50;;;;;;;17.25;30.56;102703.75;5042070;28;20470;-74
2023/02/07 10:42:50;;;;;;;13.07;11.53;;;;;;;17.77;29.95;102704.47;5044178;28;20906;-76
2023/02/07 10:45:17;;;;;;;14.30;12.60;;;;;;;18.17;29.09;102718.41;5043461;28;20482;-76
2023/02/07 10:47:43;;;;;;;14.23;12.30;;;;;;;19.49;27.91;102707.22;5044528;28;20470;-76
2023/02/07 10:50:14;;;;;;;17.53;12.93;;;;;;;19.72;28.06;102714.41;5046024;28;20507;-75
2023/02/07 10:52:45;;;;;;;14.90;12.23;;;;;;;19.27;27.96;102702.75;5038377;28;20852;-76
2023/02/07 10:55:17;;;;;;;16.10;13.00;;;;;;;19.29;27.85;102703.59;5035809;28;20458;-75
2023/02/07 10:57:53;;;;;;;13.53;12.13;;;;;;;19.55;27.81;102707.81;5035673;28;20426;-76
2023/02/07 11:00:25;;;;;;;14.60;12.00;;;;;;;19.43;27.85;102691.13;5038820;28;20466;-75
2023/02/07 11:02:53;;;;;;;12.17;10.97;;;;;;;19.70;27.63;102695.31;5039800;28;20561;-74
2023/02/07 11:05:32;;;;;;;14.37;11.90;;;;;;;18.94;27.33;102695.09;5035859;28;20471;-75
2023/02/07 11:08:02;;;;;;;13.83;11.40;;;;;;;18.84;27.53;102691.03;5035317;28;20500;-76
2023/02/07 11:10:34;;;;;;;13.10;11.80;;;;;;;19.94;26.91;102693.28;5035109;28;20458;-75
2023/02/07 11:13:01;;;;;;;14.13;11.07;;;;;;;21.16;26.06;102690.69;5036162;28;20428;-75
2023/02/07 11:15:34;;;;;;;14.93;12.83;;;;;;;20.26;26.52;102687.16;5035449;28;20462;-75
2023/02/07 11:18:01;;;;;;;14.83;12.43;;;;;;;21.30;26.00;102689.97;5037215;28;20494;-75
2023/02/07 11:20:30;;;;;;;14.03;12.57;;;;;;;21.14;25.71;102694.47;5037300;28;20468;-77
2023/02/07 11:22:58;;;;;;;12.50;11.30;;;;;;;21.38;25.59;102700.50;5037634;28;20490;-75